createdAt,value
2022-09-11T00:01:39.402Z,1.20
2022-09-11T00:04:08.005Z,1.10
2022-09-11T00:06:36.221Z,1.65
2022-09-11T00:09:07.334Z,2.03
2022-09-11T00:11:37.231Z,1.40
2022-09-11T00:14:05.617Z,1.27
2022-09-11T00:16:36.413Z,3.33
2022-09-11T00:19:07.533Z,1.63
2022-09-11T00:21:36.505Z,2.20
2022-09-11T00:24:08.092Z,1.92
2022-09-11T00:26:36.292Z,3.97
2022-09-11T00:29:05.172Z,7.35
2022-09-11T00:31:33.691Z,1.77
2022-09-11T00:34:02.111Z,2.67
2022-09-11T00:36:32.531Z,1.13
2022-09-11T00:39:01.219Z,4.45
2022-09-11T00:41:33.466Z,1.60
2022-09-11T00:44:04.261Z,1.35
2022-09-11T00:46:37.582Z,1.05
2022-09-11T00:49:17.532Z,1.27
2022-09-11T00:51:49.079Z,1.95
2022-09-11T00:54:21.422Z,2.28
2022-09-11T00:56:51.461Z,0.90
2022-09-11T00:59:25.262Z,1.15
2022-09-11T01:01:53.891Z,1.42
2022-09-11T01:04:23.631Z,1.70
2022-09-11T01:06:53.903Z,1.70
2022-09-11T01:09:22.551Z,1.02
2022-09-11T01:12:00.991Z,0.98
2022-09-11T01:14:41.411Z,1.15
2022-09-11T01:17:22.901Z,1.10
2022-09-11T01:20:15.697Z,1.00
2022-09-11T01:23:10.031Z,1.13
2022-09-11T01:26:00.108Z,0.88
2022-09-11T01:28:36.103Z,1.10
2022-09-11T01:31:11.499Z,0.93
2022-09-11T01:33:45.812Z,1.48
2022-09-11T01:36:21.321Z,1.05
2022-09-11T01:38:54.071Z,1.25
2022-09-11T01:41:28.682Z,1.77
2022-09-11T01:44:03.873Z,1.77
2022-09-11T01:46:37.239Z,1.38
2022-09-11T01:49:09.939Z,3.75
2022-09-11T01:51:41.727Z,0.90
2022-09-11T01:54:15.622Z,2.08
2022-09-11T01:56:49.431Z,2.00
2022-09-11T01:59:28.146Z,1.02
2022-09-11T02:02:03.397Z,1.80
2022-09-11T02:04:37.881Z,1.52
2022-09-11T02:07:12.189Z,3.35
2022-09-11T02:09:46.302Z,2.50
2022-09-11T02:12:18.301Z,5.72
2022-09-11T02:14:53.333Z,1.52
2022-09-11T02:17:28.349Z,1.50
2022-09-11T02:19:59.682Z,1.15
2022-09-11T02:22:28.361Z,1.83
2022-09-11T02:24:56.920Z,1.50
2022-09-11T02:27:28.413Z,1.65
2022-09-11T02:29:59.702Z,2.20
2022-09-11T02:32:32.769Z,1.50
2022-09-11T02:35:02.039Z,1.30
2022-09-11T02:37:49.166Z,0.88
2022-09-11T02:40:30.101Z,1.50
2022-09-11T02:43:24.919Z,1.30
2022-09-11T02:46:12.471Z,2.17
2022-09-11T02:48:52.678Z,1.75
2022-09-11T02:51:29.472Z,2.35
2022-09-11T02:54:07.131Z,1.35
2022-09-11T02:56:43.001Z,3.25
2022-09-11T02:59:19.211Z,0.95
2022-09-11T03:01:53.216Z,2.40
2022-09-11T03:04:25.539Z,1.35
2022-09-11T03:06:55.531Z,1.50
2022-09-11T03:09:23.919Z,1.27
2022-09-11T03:11:56.502Z,3.07
2022-09-11T03:14:24.931Z,1.25
2022-09-11T03:16:56.141Z,2.05
2022-09-11T03:19:26.071Z,1.27
2022-09-11T03:21:56.119Z,3.55
2022-09-11T03:24:24.591Z,3.05
2022-09-11T03:26:52.981Z,1.70
2022-09-11T03:29:21.221Z,1.42
2022-09-11T03:31:51.426Z,1.33
2022-09-11T03:34:21.061Z,1.52
2022-09-11T03:36:50.081Z,1.35
2022-09-11T03:39:19.531Z,1.67
2022-09-11T03:41:47.771Z,1.30
2022-09-11T03:44:16.032Z,1.25
2022-09-11T03:46:45.480Z,2.15
2022-09-11T03:49:14.079Z,1.55
2022-09-11T03:51:43.562Z,1.80
2022-09-11T03:54:12.261Z,1.98
2022-09-11T03:56:40.961Z,2.03
2022-09-11T03:59:09.963Z,1.95
2022-09-11T04:01:39.540Z,1.48
2022-09-11T04:04:08.129Z,1.30
2022-09-11T04:06:40.861Z,1.77
2022-09-11T04:09:10.430Z,1.85
2022-09-11T04:11:40.101Z,1.83
2022-09-11T04:14:16.099Z,1.55
2022-09-11T04:16:44.929Z,1.77
2022-09-11T04:19:13.665Z,1.85
2022-09-11T04:21:44.731Z,2.05
2022-09-11T04:24:15.379Z,1.45
2022-09-11T04:26:47.199Z,1.65
2022-09-11T04:29:22.640Z,3.30
2022-09-11T04:31:52.417Z,3.85
2022-09-11T04:34:21.572Z,2.88
2022-09-11T04:36:51.002Z,2.67
2022-09-11T04:39:23.631Z,3.20
2022-09-11T04:41:51.941Z,2.58
2022-09-11T04:44:20.833Z,3.25
2022-09-11T04:46:49.369Z,2.03
2022-09-11T04:49:18.789Z,2.92
2022-09-11T04:51:48.211Z,3.10
2022-09-11T04:54:21.369Z,3.88
2022-09-11T04:56:51.592Z,4.68
2022-09-11T04:59:22.523Z,4.40
2022-09-11T05:01:59.072Z,4.22
2022-09-11T05:04:29.228Z,4.82
2022-09-11T05:06:57.759Z,3.15
2022-09-11T05:09:28.009Z,5.22
2022-09-11T05:11:58.761Z,3.30
2022-09-11T05:14:32.864Z,4.25
2022-09-11T05:17:03.471Z,5.30
2022-09-11T05:19:34.782Z,4.07
2022-09-11T05:22:04.428Z,6.60
2022-09-11T05:24:34.612Z,6.38
2022-09-11T05:27:04.731Z,5.50
2022-09-11T05:29:33.365Z,5.10
2022-09-11T05:32:06.082Z,3.78
2022-09-11T05:34:34.337Z,5.85
2022-09-11T05:37:03.171Z,5.00
2022-09-11T05:39:37.214Z,6.20
2022-09-11T05:42:08.299Z,5.35
2022-09-11T05:44:40.741Z,4.05
2022-09-11T05:47:09.140Z,5.47
2022-09-11T05:49:37.650Z,6.65
2022-09-11T05:52:06.531Z,4.93
2022-09-11T05:54:36.491Z,4.45
2022-09-11T05:57:08.054Z,5.32
2022-09-11T05:59:39.300Z,4.82
2022-09-11T06:02:08.521Z,6.35
2022-09-11T06:04:43.811Z,4.25
2022-09-11T06:07:13.307Z,4.72
2022-09-11T06:09:43.811Z,4.22
2022-09-11T06:12:13.672Z,4.18
2022-09-11T06:14:44.492Z,4.70
2022-09-11T06:17:13.811Z,6.20
2022-09-11T06:19:42.311Z,4.03
2022-09-11T06:22:11.351Z,4.05
2022-09-11T06:24:43.889Z,6.45
2022-09-11T06:27:13.510Z,3.58
2022-09-11T06:29:46.165Z,3.45
2022-09-11T06:32:14.532Z,4.45
2022-09-11T06:34:43.265Z,5.07
2022-09-11T06:37:15.661Z,5.35
2022-09-11T06:39:44.219Z,5.25
2022-09-11T06:42:22.308Z,3.20
2022-09-11T06:44:52.271Z,5.50
2022-09-11T06:47:21.851Z,4.30
2022-09-11T06:49:50.492Z,4.70
2022-09-11T06:52:35.764Z,4.07
2022-09-11T06:55:24.770Z,4.65
2022-09-11T06:58:00.666Z,4.25
2022-09-11T07:00:32.211Z,4.40
2022-09-11T07:03:02.951Z,5.07
2022-09-11T07:05:31.441Z,4.25
2022-09-11T07:08:02.601Z,4.43
2022-09-11T07:10:34.909Z,3.45
2022-09-11T07:13:05.571Z,3.60
2022-09-11T07:15:33.841Z,2.67
2022-09-11T07:18:03.687Z,2.95
2022-09-11T07:20:32.619Z,4.35
2022-09-11T07:23:01.302Z,3.65
2022-09-11T07:25:32.439Z,3.92
2022-09-11T07:28:00.911Z,2.80
2022-09-11T07:30:30.687Z,7.25
2022-09-11T07:32:59.249Z,3.53
2022-09-11T07:35:27.436Z,4.03
2022-09-11T07:37:59.112Z,4.28
2022-09-11T07:40:28.950Z,4.30
2022-09-11T07:43:00.231Z,4.35
2022-09-11T07:45:30.606Z,4.40
2022-09-11T07:48:02.591Z,4.45
2022-09-11T07:50:32.430Z,4.97
2022-09-11T07:53:01.686Z,5.53
2022-09-11T07:55:30.021Z,8.25
2022-09-11T07:57:58.680Z,4.32
2022-09-11T08:00:27.431Z,5.30
2022-09-11T08:03:05.889Z,5.18
2022-09-11T08:05:37.373Z,5.72
2022-09-11T08:08:06.379Z,4.60
2022-09-11T08:10:41.056Z,7.45
2022-09-11T08:13:11.179Z,5.68
2022-09-11T08:15:39.541Z,4.72
2022-09-11T08:18:10.422Z,4.10
2022-09-11T08:20:39.690Z,4.30
2022-09-11T08:23:08.291Z,5.07
2022-09-11T08:25:37.190Z,5.72
2022-09-11T08:28:06.609Z,6.30
2022-09-11T08:30:38.361Z,5.35
2022-09-11T08:33:08.594Z,6.95
2022-09-11T08:35:39.251Z,10.98
2022-09-11T08:38:07.681Z,6.03
2022-09-11T08:40:39.099Z,5.50
2022-09-11T08:43:19.598Z,7.23
2022-09-11T08:45:51.666Z,5.47
2022-09-11T08:48:23.181Z,6.13
2022-09-11T08:50:52.849Z,6.43
2022-09-11T08:53:21.298Z,9.65
2022-09-11T08:55:53.610Z,7.90
2022-09-11T08:58:31.041Z,10.00
2022-09-11T09:01:07.920Z,7.38
2022-09-11T09:04:05.852Z,7.90
2022-09-11T09:06:49.200Z,8.38
2022-09-11T09:09:30.760Z,8.27
2022-09-11T09:12:16.195Z,9.38
2022-09-11T09:15:10.151Z,12.75
2022-09-11T09:17:43.719Z,10.27
2022-09-11T09:20:16.772Z,11.13
2022-09-11T09:22:51.731Z,8.60
2022-09-11T09:25:24.044Z,8.65
2022-09-11T09:28:00.642Z,7.78
2022-09-11T09:30:36.941Z,12.02
2022-09-11T09:33:20.602Z,9.88
2022-09-11T09:38:27.101Z,12.50
2022-09-11T09:41:11.141Z,11.52
2022-09-11T09:43:50.621Z,12.40
2022-09-11T09:46:28.791Z,11.05
2022-09-11T09:48:57.141Z,16.40
2022-09-11T09:51:25.519Z,13.32
2022-09-11T09:53:58.991Z,10.70
2022-09-11T09:56:29.132Z,12.27
2022-09-11T09:59:02.771Z,11.85
2022-09-11T10:01:46.755Z,12.50
2022-09-11T10:04:18.793Z,11.90
2022-09-11T10:06:48.822Z,14.50
2022-09-11T10:09:24.393Z,13.93
2022-09-11T10:11:57.901Z,12.00
2022-09-11T10:17:23.448Z,11.30
2022-09-11T10:19:52.941Z,10.70
2022-09-11T10:22:27.929Z,13.25
2022-09-11T10:25:16.551Z,12.57
2022-09-11T10:27:57.219Z,13.50
2022-09-11T10:30:30.061Z,15.73
2022-09-11T10:33:03.269Z,13.05
2022-09-11T10:35:33.450Z,18.20
2022-09-11T10:38:15.450Z,13.60
2022-09-11T10:40:55.521Z,16.83
2022-09-11T10:43:26.825Z,13.85
2022-09-11T10:46:38.454Z,14.40
2022-09-11T10:49:18.210Z,16.05
2022-09-11T10:52:00.331Z,11.48
2022-09-11T10:54:40.839Z,12.55
2022-09-11T10:57:19.673Z,18.92
2022-09-11T10:59:59.641Z,15.32
2022-09-11T11:02:33.271Z,14.43
2022-09-11T11:05:06.239Z,17.48
2022-09-11T11:07:57.451Z,14.30
2022-09-11T11:10:39.361Z,13.43
2022-09-11T11:13:24.944Z,14.68
2022-09-11T11:16:01.889Z,13.13
2022-09-11T11:18:47.777Z,12.80
2022-09-11T11:21:29.621Z,13.55
2022-09-11T11:24:15.335Z,14.80
2022-09-11T11:26:53.739Z,11.02
2022-09-11T11:29:42.786Z,13.55
2022-09-11T11:32:27.993Z,13.65
2022-09-11T11:35:14.050Z,13.60
2022-09-11T11:37:43.851Z,11.68
2022-09-11T11:40:19.932Z,12.00
2022-09-11T11:42:56.206Z,12.10
2022-09-11T11:45:32.120Z,13.90
2022-09-11T11:48:04.492Z,13.48
2022-09-11T11:50:42.021Z,13.75
2022-09-11T11:53:18.463Z,14.05
2022-09-11T11:55:54.981Z,10.90
2022-09-11T11:58:30.722Z,10.85
2022-09-11T12:01:03.809Z,11.70
2022-09-11T12:03:39.809Z,10.75
2022-09-11T12:06:08.938Z,11.70
2022-09-11T12:08:45.058Z,10.80
2022-09-11T12:11:17.097Z,12.95
2022-09-11T12:13:49.161Z,17.23
2022-09-11T12:16:22.102Z,9.93
2022-09-11T12:19:15.266Z,10.80
2022-09-11T12:22:06.785Z,13.00
2022-09-11T12:24:58.839Z,9.57
2022-09-11T12:27:52.282Z,10.50
2022-09-11T12:30:24.490Z,12.80
2022-09-11T12:32:55.850Z,9.52
2022-09-11T12:35:30.389Z,12.60
2022-09-11T12:38:05.570Z,11.13
2022-09-11T12:40:40.218Z,8.95
2022-09-11T12:43:32.461Z,8.85
2022-09-11T12:46:02.097Z,6.72
2022-09-11T12:48:38.689Z,7.75
2022-09-11T12:51:18.361Z,10.75
2022-09-11T12:53:51.712Z,10.40
2022-09-11T12:56:22.759Z,8.75
2022-09-11T12:58:56.921Z,6.72
2022-09-11T13:01:30.659Z,7.75
2022-09-11T13:04:04.769Z,5.47
2022-09-11T13:06:42.109Z,7.13
2022-09-11T13:09:21.729Z,7.25
2022-09-11T13:11:51.885Z,7.90
2022-09-11T13:14:49.841Z,8.45
2022-09-11T13:17:26.441Z,8.10
2022-09-11T13:20:10.911Z,6.22
2022-09-11T13:22:39.519Z,6.60
2022-09-11T13:25:16.459Z,9.05
2022-09-11T13:27:48.021Z,6.07
2022-09-11T13:30:19.296Z,7.22
2022-09-11T13:32:51.221Z,6.60
2022-09-11T13:35:25.815Z,8.75
2022-09-11T13:37:58.461Z,10.27
2022-09-11T13:40:32.361Z,6.37
2022-09-11T13:43:02.090Z,6.70
2022-09-11T13:45:30.373Z,6.95
2022-09-11T13:47:59.229Z,6.70
2022-09-11T13:50:28.730Z,4.30
2022-09-11T13:52:57.303Z,5.03
2022-09-11T13:55:27.971Z,5.53
2022-09-11T13:57:58.676Z,3.95
2022-09-11T14:00:46.022Z,4.82
2022-09-11T14:03:21.562Z,3.85
2022-09-11T14:05:54.009Z,3.00
2022-09-11T14:08:32.687Z,3.37
2022-09-11T14:11:08.135Z,2.70
2022-09-11T14:13:46.002Z,2.90
2022-09-11T14:16:25.007Z,3.17
2022-09-11T14:18:56.709Z,3.80
2022-09-11T14:21:32.526Z,6.00
2022-09-11T14:24:01.271Z,4.68
2022-09-11T14:26:42.021Z,3.05
2022-09-11T14:29:24.160Z,3.83
2022-09-11T14:31:53.701Z,2.85
2022-09-11T14:34:26.791Z,4.25
2022-09-11T14:36:59.900Z,2.97
2022-09-11T14:39:34.040Z,2.80
2022-09-11T14:42:02.888Z,3.38
2022-09-11T14:44:32.839Z,2.75
2022-09-11T14:47:01.122Z,2.67
2022-09-11T14:49:29.653Z,2.20
2022-09-11T14:52:01.311Z,4.70
2022-09-11T14:54:32.195Z,4.30
2022-09-11T14:57:01.151Z,3.33
2022-09-11T14:59:30.252Z,2.42
2022-09-11T15:01:59.652Z,3.50
2022-09-11T15:04:29.555Z,2.58
2022-09-11T15:07:00.021Z,2.15
2022-09-11T15:09:29.310Z,2.38
2022-09-11T15:11:58.240Z,3.35
2022-09-11T15:14:54.318Z,1.77
2022-09-11T15:17:17.875Z,2.05
2022-09-11T15:19:47.210Z,1.73
2022-09-11T15:22:17.248Z,1.65
2022-09-11T15:24:45.350Z,1.58
2022-09-11T15:27:13.880Z,1.60
2022-09-11T15:29:42.604Z,1.20
2022-09-11T15:32:11.429Z,1.77
2022-09-11T15:34:42.158Z,0.95
2022-09-11T15:37:11.751Z,2.42
2022-09-11T15:39:41.450Z,1.70
2022-09-11T15:42:10.113Z,1.50
2022-09-11T15:44:38.590Z,2.50
2022-09-11T15:47:07.161Z,1.40
2022-09-11T15:49:40.753Z,1.42
2022-09-11T15:52:29.580Z,3.33
2022-09-11T15:54:59.180Z,1.67
2022-09-11T15:57:28.650Z,1.23
2022-09-11T15:59:56.807Z,1.52
2022-09-11T16:02:25.022Z,1.58
2022-09-11T16:04:53.983Z,1.23
2022-09-11T16:07:22.558Z,2.08
2022-09-11T16:09:50.797Z,1.40
2022-09-11T16:12:20.400Z,2.17
2022-09-11T16:14:48.617Z,2.15
2022-09-11T16:17:20.531Z,4.22
2022-09-11T16:19:48.747Z,2.55
2022-09-11T16:22:16.900Z,1.33
2022-09-11T16:24:45.197Z,1.30
2022-09-11T16:27:13.632Z,2.13
2022-09-11T16:30:15.916Z,1.38
2022-09-11T16:32:33.308Z,1.30
2022-09-11T16:35:01.671Z,1.50
2022-09-11T16:37:32.858Z,1.17
2022-09-11T16:40:05.292Z,1.10
2022-09-11T16:42:35.042Z,1.92
2022-09-11T16:45:08.117Z,1.23
2022-09-11T16:47:38.725Z,1.02
2022-09-11T16:50:10.550Z,1.00
2022-09-11T16:52:43.414Z,1.17
2022-09-11T16:55:16.080Z,0.98
2022-09-11T16:57:47.016Z,1.48
2022-09-11T17:00:17.374Z,1.83
2022-09-11T17:02:45.995Z,1.83
2022-09-11T17:05:18.550Z,2.47
2022-09-11T17:07:47.518Z,0.90
2022-09-11T17:10:15.650Z,1.25
2022-09-11T17:12:43.752Z,3.58
2022-09-11T17:15:12.181Z,1.42
2022-09-11T17:17:43.432Z,2.17
2022-09-11T17:20:12.831Z,1.75
2022-09-11T17:22:41.769Z,1.00
2022-09-11T17:25:11.467Z,1.42
2022-09-11T17:27:40.150Z,1.88
2022-09-11T17:30:09.240Z,1.27
2022-09-11T17:32:38.941Z,2.05
2022-09-11T17:35:09.670Z,0.95
2022-09-11T17:37:38.018Z,0.82
2022-09-11T17:40:07.989Z,1.33
2022-09-11T17:42:36.482Z,2.10
2022-09-11T17:45:05.230Z,1.13
2022-09-11T17:47:35.979Z,1.25
2022-09-11T17:50:04.301Z,0.93
2022-09-11T17:52:36.939Z,0.90
2022-09-11T17:55:05.908Z,2.80
2022-09-11T17:57:34.400Z,1.33
2022-09-11T18:00:03.769Z,1.67
2022-09-11T18:02:40.595Z,0.65
2022-09-11T18:05:09.168Z,0.85
2022-09-11T18:07:39.160Z,0.80
2022-09-11T18:10:07.941Z,0.68
2022-09-11T18:12:36.511Z,0.90
2022-09-11T18:15:06.377Z,1.13
2022-09-11T18:17:34.708Z,1.38
2022-09-11T18:20:04.863Z,2.83
2022-09-11T18:22:36.387Z,3.55
2022-09-11T18:25:06.192Z,4.40
2022-09-11T18:27:35.215Z,1.48
2022-09-11T18:30:04.700Z,0.68
2022-09-11T18:32:32.730Z,0.85
2022-09-11T18:35:04.455Z,1.77
2022-09-11T18:37:32.652Z,0.65
2022-09-11T18:40:02.141Z,1.45
2022-09-11T18:42:31.861Z,0.60
2022-09-11T18:45:00.103Z,0.95
2022-09-11T18:47:30.661Z,0.73
2022-09-11T18:49:59.638Z,0.73
2022-09-11T18:52:30.798Z,1.98
2022-09-11T18:55:00.222Z,0.75
2022-09-11T18:57:28.750Z,1.35
2022-09-11T19:00:00.740Z,1.60
2022-09-11T19:02:29.940Z,0.70
2022-09-11T19:05:00.145Z,1.23
2022-09-11T19:07:28.463Z,0.98
2022-09-11T19:09:56.957Z,0.80
2022-09-11T19:12:26.060Z,1.55
2022-09-11T19:14:55.566Z,0.98
2022-09-11T19:17:25.129Z,1.05
2022-09-11T19:19:54.458Z,0.98
2022-09-11T19:22:24.840Z,0.82
2022-09-11T19:24:53.292Z,1.50
2022-09-11T19:27:21.642Z,3.17
2022-09-11T19:29:50.622Z,3.30
2022-09-11T19:32:18.756Z,4.65
2022-09-11T19:34:48.197Z,1.58
2022-09-11T19:37:16.537Z,2.05
2022-09-11T19:39:44.968Z,0.75
2022-09-11T19:42:13.350Z,3.58
2022-09-11T19:44:41.411Z,0.73
2022-09-11T19:47:09.758Z,1.80
2022-09-11T19:49:38.248Z,0.90
2022-09-11T19:52:08.340Z,4.47
2022-09-11T19:54:38.040Z,1.95
2022-09-11T19:57:06.703Z,0.88
2022-09-11T19:59:34.933Z,0.80
2022-09-11T20:02:03.503Z,2.80
2022-09-11T20:04:31.816Z,2.75
2022-09-11T20:07:00.540Z,1.65
2022-09-11T20:09:31.741Z,1.50
2022-09-11T20:14:46.960Z,0.68
2022-09-11T20:17:15.155Z,0.98
2022-09-11T20:19:44.813Z,0.60
2022-09-11T20:22:13.079Z,1.00
2022-09-11T20:24:42.557Z,1.38
2022-09-11T20:27:10.850Z,0.45
2022-09-11T20:29:40.135Z,1.00
2022-09-11T20:32:08.333Z,1.23
2022-09-11T20:34:36.692Z,2.63
2022-09-11T20:37:08.138Z,1.85
2022-09-11T20:39:41.424Z,0.90
2022-09-11T20:42:10.958Z,1.15
2022-09-11T20:44:39.138Z,2.25
2022-09-11T20:47:09.440Z,0.80
2022-09-11T20:49:37.664Z,0.50
2022-09-11T20:52:06.005Z,0.70
2022-09-11T20:54:34.262Z,0.90
2022-09-11T20:57:02.498Z,5.25
2022-09-11T20:59:32.106Z,1.55
2022-09-11T21:02:00.794Z,1.13
2022-09-11T21:04:29.320Z,0.80
2022-09-11T21:06:57.564Z,0.90
2022-09-11T21:09:25.805Z,1.55
2022-09-11T21:11:53.958Z,2.05
2022-09-11T21:14:22.091Z,1.33
2022-09-11T21:16:53.404Z,1.42
2022-09-11T21:19:21.792Z,1.20
2022-09-11T21:21:49.886Z,1.67
2022-09-11T21:24:18.061Z,1.98
2022-09-11T21:26:46.218Z,2.33
2022-09-11T21:29:14.844Z,1.98
2022-09-11T21:31:43.173Z,2.75
2022-09-11T21:34:12.719Z,3.13
2022-09-11T21:36:41.021Z,2.50
2022-09-11T21:39:09.320Z,2.92
2022-09-11T21:41:37.396Z,1.55
2022-09-11T21:44:05.604Z,3.90
2022-09-11T21:46:34.242Z,2.92
2022-09-11T21:49:02.798Z,1.98
2022-09-11T21:51:32.266Z,2.45
2022-09-11T21:54:02.004Z,2.53
2022-09-11T21:56:32.449Z,3.95
2022-09-11T21:59:01.307Z,4.07
2022-09-11T22:01:29.959Z,3.20
2022-09-11T22:04:00.214Z,2.65
2022-09-11T22:06:29.100Z,2.33
2022-09-11T22:08:58.755Z,2.10
2022-09-11T22:11:26.987Z,2.45
2022-09-11T22:13:55.471Z,3.03
2022-09-11T22:16:23.854Z,2.38
2022-09-11T22:18:54.777Z,3.40
2022-09-11T22:21:22.900Z,4.65
2022-09-11T22:23:51.009Z,3.78
2022-09-11T22:26:23.977Z,4.05
2022-09-11T22:28:53.089Z,3.17
2022-09-11T22:31:24.998Z,4.35
2022-09-11T22:33:53.889Z,4.80
2022-09-11T22:36:24.759Z,3.80
2022-09-11T22:38:53.665Z,4.53
2022-09-11T22:41:24.200Z,7.82
2022-09-11T22:43:52.318Z,5.47
2022-09-11T22:46:22.022Z,5.07
2022-09-11T22:48:50.675Z,6.00
2022-09-11T22:51:18.950Z,7.28
2022-09-11T22:53:47.390Z,7.40
2022-09-11T22:56:16.081Z,4.03
2022-09-11T22:58:45.735Z,8.68
2022-09-11T23:01:21.031Z,6.60
2022-09-11T23:03:50.149Z,4.97
2022-09-11T23:06:36.270Z,5.93
2022-09-11T23:09:05.279Z,5.20
2022-09-11T23:11:33.481Z,6.15
2022-09-11T23:14:03.060Z,5.60
2022-09-11T23:16:32.276Z,7.03
2022-09-11T23:19:02.657Z,6.93
2022-09-11T23:21:32.950Z,7.68
2022-09-11T23:24:01.973Z,7.53
2022-09-11T23:26:31.071Z,8.60
2022-09-11T23:29:00.017Z,7.50
2022-09-11T23:31:31.686Z,8.15
2022-09-11T23:34:02.517Z,11.80
2022-09-11T23:36:32.090Z,9.07
2022-09-11T23:39:00.960Z,10.95
2022-09-11T23:41:32.019Z,15.65
2022-09-11T23:44:00.760Z,11.95
2022-09-11T23:46:30.300Z,10.98
2022-09-11T23:48:58.571Z,10.75
2022-09-11T23:51:26.960Z,11.43
2022-09-11T23:53:55.080Z,11.15
2022-09-11T23:56:23.571Z,10.27
2022-09-11T23:58:52.310Z,14.90
